sensor_id;sensor_type;location;lat;lon;timestamp;temperature;humidity
11609;DHT22;5860;52.018;8.536;2023-07-30T00:01:53;16.60;99.90
11609;DHT22;5860;52.018;8.536;2023-07-30T00:04:20;16.60;99.90
11609;DHT22;5860;52.018;8.536;2023-07-30T00:06:47;16.60;99.90
11609;DHT22;5860;52.018;8.536;2023-07-30T00:09:15;16.70;99.90
11609;DHT22;5860;52.018;8.536;2023-07-30T00:11:42;16.70;99.90
11609;DHT22;5860;52.018;8.536;2023-07-30T00:14:09;16.70;99.90
11609;DHT22;5860;52.018;8.536;2023-07-30T00:16:36;16.70;99.90
11609;DHT22;5860;52.018;8.536;2023-07-30T00:19:03;16.70;99.90
11609;DHT22;5860;52.018;8.536;2023-07-30T00:21:30;16.70;99.90
11609;DHT22;5860;52.018;8.536;2023-07-30T00:23:57;16.70;99.90
11609;DHT22;5860;52.018;8.536;2023-07-30T00:26:25;16.80;99.90
11609;DHT22;5860;52.018;8.536;2023-07-30T00:28:52;16.80;99.90
11609;DHT22;5860;52.018;8.536;2023-07-30T00:31:19;16.70;99.90
11609;DHT22;5860;52.018;8.536;2023-07-30T00:33:47;16.70;99.90
11609;DHT22;5860;52.018;8.536;2023-07-30T00:36:13;16.60;99.90
11609;DHT22;5860;52.018;8.536;2023-07-30T00:38:40;16.60;99.90
11609;DHT22;5860;52.018;8.536;2023-07-30T00:41:07;16.60;99.90
11609;DHT22;5860;52.018;8.536;2023-07-30T00:43:34;16.50;99.90
11609;DHT22;5860;52.018;8.536;2023-07-30T00:46:02;16.40;99.90
11609;DHT22;5860;52.018;8.536;2023-07-30T00:48:29;16.30;99.90
11609;DHT22;5860;52.018;8.536;2023-07-30T00:50:57;16.30;99.90
11609;DHT22;5860;52.018;8.536;2023-07-30T00:53:26;16.30;99.90
11609;DHT22;5860;52.018;8.536;2023-07-30T00:55:54;16.30;99.90
11609;DHT22;5860;52.018;8.536;2023-07-30T00:58:21;16.20;99.90
11609;DHT22;5860;52.018;8.536;2023-07-30T01:00:48;16.20;99.90
11609;DHT22;5860;52.018;8.536;2023-07-30T01:03:16;16.10;99.90
11609;DHT22;5860;52.018;8.536;2023-07-30T01:05:44;16.20;99.90
11609;DHT22;5860;52.018;8.536;2023-07-30T01:08:11;16.20;99.90
11609;DHT22;5860;52.018;8.536;2023-07-30T01:10:41;16.20;99.90
11609;DHT22;5860;52.018;8.536;2023-07-30T01:13:09;16.20;99.90
11609;DHT22;5860;52.018;8.536;2023-07-30T01:15:37;16.10;99.90
11609;DHT22;5860;52.018;8.536;2023-07-30T01:18:04;16.10;99.90
11609;DHT22;5860;52.018;8.536;2023-07-30T01:20:31;16.10;99.90
11609;DHT22;5860;52.018;8.536;2023-07-30T01:23:02;16.10;99.90
11609;DHT22;5860;52.018;8.536;2023-07-30T01:25:30;16.00;99.90
11609;DHT22;5860;52.018;8.536;2023-07-30T01:28:01;16.00;99.90
11609;DHT22;5860;52.018;8.536;2023-07-30T01:30:40;16.00;99.90
11609;DHT22;5860;52.018;8.536;2023-07-30T01:33:09;16.10;99.90
11609;DHT22;5860;52.018;8.536;2023-07-30T01:35:38;16.00;99.90
11609;DHT22;5860;52.018;8.536;2023-07-30T01:38:06;15.90;99.90
11609;DHT22;5860;52.018;8.536;2023-07-30T01:40:34;16.00;99.90
11609;DHT22;5860;52.018;8.536;2023-07-30T01:43:01;16.00;99.90
11609;DHT22;5860;52.018;8.536;2023-07-30T01:45:28;16.00;99.90
11609;DHT22;5860;52.018;8.536;2023-07-30T01:47:55;16.10;99.90
11609;DHT22;5860;52.018;8.536;2023-07-30T01:50:22;16.00;99.90
11609;DHT22;5860;52.018;8.536;2023-07-30T01:52:49;15.90;99.90
11609;DHT22;5860;52.018;8.536;2023-07-30T01:55:15;15.90;99.90
11609;DHT22;5860;52.018;8.536;2023-07-30T01:57:42;15.80;99.90
11609;DHT22;5860;52.018;8.536;2023-07-30T02:00:10;15.80;99.90
11609;DHT22;5860;52.018;8.536;2023-07-30T02:02:37;15.80;99.90
11609;DHT22;5860;52.018;8.536;2023-07-30T02:05:04;15.80;99.90
11609;DHT22;5860;52.018;8.536;2023-07-30T02:07:31;15.80;99.90
11609;DHT22;5860;52.018;8.536;2023-07-30T02:09:58;15.70;99.90
11609;DHT22;5860;52.018;8.536;2023-07-30T02:12:25;15.60;99.90
11609;DHT22;5860;52.018;8.536;2023-07-30T02:14:52;15.60;99.90
11609;DHT22;5860;52.018;8.536;2023-07-30T02:17:19;15.60;99.90
11609;DHT22;5860;52.018;8.536;2023-07-30T02:19:46;15.60;99.90
11609;DHT22;5860;52.018;8.536;2023-07-30T02:22:13;15.60;99.90
11609;DHT22;5860;52.018;8.536;2023-07-30T02:24:40;15.60;99.90
11609;DHT22;5860;52.018;8.536;2023-07-30T02:27:06;15.70;99.90
11609;DHT22;5860;52.018;8.536;2023-07-30T02:29:33;15.70;99.90
11609;DHT22;5860;52.018;8.536;2023-07-30T02:32:00;15.70;99.90
11609;DHT22;5860;52.018;8.536;2023-07-30T02:34:27;15.70;99.90
11609;DHT22;5860;52.018;8.536;2023-07-30T02:36:54;15.70;99.90
11609;DHT22;5860;52.018;8.536;2023-07-30T02:39:21;15.60;99.90
11609;DHT22;5860;52.018;8.536;2023-07-30T02:41:48;15.60;99.90
11609;DHT22;5860;52.018;8.536;2023-07-30T02:44:15;15.50;99.90
11609;DHT22;5860;52.018;8.536;2023-07-30T02:46:42;15.60;99.90
11609;DHT22;5860;52.018;8.536;2023-07-30T02:49:09;15.70;99.90
11609;DHT22;5860;52.018;8.536;2023-07-30T02:51:36;15.70;99.90
11609;DHT22;5860;52.018;8.536;2023-07-30T02:54:04;15.80;99.90
11609;DHT22;5860;52.018;8.536;2023-07-30T02:56:32;15.80;99.90
11609;DHT22;5860;52.018;8.536;2023-07-30T02:58:59;15.70;99.90
11609;DHT22;5860;52.018;8.536;2023-07-30T03:01:26;15.70;99.90
11609;DHT22;5860;52.018;8.536;2023-07-30T03:03:53;15.80;99.90
11609;DHT22;5860;52.018;8.536;2023-07-30T03:06:20;15.70;99.90
11609;DHT22;5860;52.018;8.536;2023-07-30T03:08:47;15.70;99.90
11609;DHT22;5860;52.018;8.536;2023-07-30T03:11:14;15.70;99.90
11609;DHT22;5860;52.018;8.536;2023-07-30T03:13:41;15.60;99.90
11609;DHT22;5860;52.018;8.536;2023-07-30T03:16:08;15.60;99.90
11609;DHT22;5860;52.018;8.536;2023-07-30T03:18:35;15.60;99.90
11609;DHT22;5860;52.018;8.536;2023-07-30T03:21:03;15.50;99.90
11609;DHT22;5860;52.018;8.536;2023-07-30T03:23:30;15.50;99.90
11609;DHT22;5860;52.018;8.536;2023-07-30T03:25:58;15.40;99.90
11609;DHT22;5860;52.018;8.536;2023-07-30T03:28:26;15.40;99.90
11609;DHT22;5860;52.018;8.536;2023-07-30T03:30:54;15.40;99.90
11609;DHT22;5860;52.018;8.536;2023-07-30T03:33:21;15.30;99.90
11609;DHT22;5860;52.018;8.536;2023-07-30T03:35:48;15.40;99.90
11609;DHT22;5860;52.018;8.536;2023-07-30T03:38:15;15.30;99.90
11609;DHT22;5860;52.018;8.536;2023-07-30T03:40:42;15.30;99.90
11609;DHT22;5860;52.018;8.536;2023-07-30T03:43:09;15.30;99.90
11609;DHT22;5860;52.018;8.536;2023-07-30T03:45:35;15.20;99.90
11609;DHT22;5860;52.018;8.536;2023-07-30T03:48:02;15.20;99.90
11609;DHT22;5860;52.018;8.536;2023-07-30T03:50:30;15.10;99.90
11609;DHT22;5860;52.018;8.536;2023-07-30T03:52:57;15.10;99.90
11609;DHT22;5860;52.018;8.536;2023-07-30T03:55:24;15.10;99.90
11609;DHT22;5860;52.018;8.536;2023-07-30T03:57:51;15.10;99.90
11609;DHT22;5860;52.018;8.536;2023-07-30T04:00:18;15.10;99.90
11609;DHT22;5860;52.018;8.536;2023-07-30T04:02:45;15.10;99.90
11609;DHT22;5860;52.018;8.536;2023-07-30T04:05:12;15.00;99.90
11609;DHT22;5860;52.018;8.536;2023-07-30T04:07:39;15.10;99.90
11609;DHT22;5860;52.018;8.536;2023-07-30T04:10:07;15.10;99.90
11609;DHT22;5860;52.018;8.536;2023-07-30T04:12:35;15.20;99.90
11609;DHT22;5860;52.018;8.536;2023-07-30T04:15:02;15.10;99.90
11609;DHT22;5860;52.018;8.536;2023-07-30T04:17:30;15.10;99.90
11609;DHT22;5860;52.018;8.536;2023-07-30T04:19:57;15.10;99.90
11609;DHT22;5860;52.018;8.536;2023-07-30T04:22:24;15.10;99.90
11609;DHT22;5860;52.018;8.536;2023-07-30T04:24:51;15.20;99.90
11609;DHT22;5860;52.018;8.536;2023-07-30T04:27:18;15.20;99.90
11609;DHT22;5860;52.018;8.536;2023-07-30T04:29:45;15.30;99.90
11609;DHT22;5860;52.018;8.536;2023-07-30T04:32:12;16.20;99.90
11609;DHT22;5860;52.018;8.536;2023-07-30T04:34:39;17.40;99.90
11609;DHT22;5860;52.018;8.536;2023-07-30T04:37:06;17.30;99.90
11609;DHT22;5860;52.018;8.536;2023-07-30T04:39:34;17.50;99.90
11609;DHT22;5860;52.018;8.536;2023-07-30T04:42:02;17.70;99.90
11609;DHT22;5860;52.018;8.536;2023-07-30T04:44:29;18.30;99.90
11609;DHT22;5860;52.018;8.536;2023-07-30T04:46:56;19.10;99.90
11609;DHT22;5860;52.018;8.536;2023-07-30T04:49:23;19.90;99.90
11609;DHT22;5860;52.018;8.536;2023-07-30T04:51:50;21.10;99.90
11609;DHT22;5860;52.018;8.536;2023-07-30T04:54:16;22.00;99.90
11609;DHT22;5860;52.018;8.536;2023-07-30T04:56:43;22.20;99.90
11609;DHT22;5860;52.018;8.536;2023-07-30T04:59:10;23.00;99.90
11609;DHT22;5860;52.018;8.536;2023-07-30T05:01:37;22.80;99.90
11609;DHT22;5860;52.018;8.536;2023-07-30T05:04:05;21.90;99.90
11609;DHT22;5860;52.018;8.536;2023-07-30T05:06:31;23.20;99.90
11609;DHT22;5860;52.018;8.536;2023-07-30T05:08:59;21.80;99.90
11609;DHT22;5860;52.018;8.536;2023-07-30T05:11:26;23.40;99.90
11609;DHT22;5860;52.018;8.536;2023-07-30T05:13:53;22.80;99.90
11609;DHT22;5860;52.018;8.536;2023-07-30T05:16:20;22.30;99.90
11609;DHT22;5860;52.018;8.536;2023-07-30T05:18:47;21.90;99.90
11609;DHT22;5860;52.018;8.536;2023-07-30T05:21:14;22.80;99.90
11609;DHT22;5860;52.018;8.536;2023-07-30T05:23:41;22.10;99.90
11609;DHT22;5860;52.018;8.536;2023-07-30T05:26:08;20.30;99.90
11609;DHT22;5860;52.018;8.536;2023-07-30T05:28:35;21.60;99.90
11609;DHT22;5860;52.018;8.536;2023-07-30T05:31:02;22.60;99.90
11609;DHT22;5860;52.018;8.536;2023-07-30T05:33:29;19.60;99.90
11609;DHT22;5860;52.018;8.536;2023-07-30T05:35:56;20.20;99.90
11609;DHT22;5860;52.018;8.536;2023-07-30T05:38:23;21.40;99.90
11609;DHT22;5860;52.018;8.536;2023-07-30T05:40:50;22.50;99.90
11609;DHT22;5860;52.018;8.536;2023-07-30T05:43:17;23.40;99.90
11609;DHT22;5860;52.018;8.536;2023-07-30T05:45:44;24.40;99.90
11609;DHT22;5860;52.018;8.536;2023-07-30T05:48:11;22.80;99.90
11609;DHT22;5860;52.018;8.536;2023-07-30T05:50:38;22.10;99.90
11609;DHT22;5860;52.018;8.536;2023-07-30T05:53:05;22.70;99.90
11609;DHT22;5860;52.018;8.536;2023-07-30T05:55:32;24.00;99.90
11609;DHT22;5860;52.018;8.536;2023-07-30T05:57:58;23.10;99.90
11609;DHT22;5860;52.018;8.536;2023-07-30T06:00:25;23.70;99.90
11609;DHT22;5860;52.018;8.536;2023-07-30T06:02:52;22.80;99.90
11609;DHT22;5860;52.018;8.536;2023-07-30T06:05:19;23.20;99.90
11609;DHT22;5860;52.018;8.536;2023-07-30T06:07:46;23.20;99.90
11609;DHT22;5860;52.018;8.536;2023-07-30T06:10:13;22.40;99.90
11609;DHT22;5860;52.018;8.536;2023-07-30T06:12:40;22.40;99.90
11609;DHT22;5860;52.018;8.536;2023-07-30T06:15:09;22.10;99.90
11609;DHT22;5860;52.018;8.536;2023-07-30T06:17:36;20.60;99.90
11609;DHT22;5860;52.018;8.536;2023-07-30T06:20:03;22.10;99.90
11609;DHT22;5860;52.018;8.536;2023-07-30T06:22:31;21.70;99.90
11609;DHT22;5860;52.018;8.536;2023-07-30T06:24:57;20.50;99.90
11609;DHT22;5860;52.018;8.536;2023-07-30T06:27:24;23.10;99.90
11609;DHT22;5860;52.018;8.536;2023-07-30T06:29:52;21.20;99.90
11609;DHT22;5860;52.018;8.536;2023-07-30T06:32:19;19.80;99.90
11609;DHT22;5860;52.018;8.536;2023-07-30T06:34:46;18.60;99.90
11609;DHT22;5860;52.018;8.536;2023-07-30T06:37:13;18.40;99.90
11609;DHT22;5860;52.018;8.536;2023-07-30T06:39:39;18.60;99.90
11609;DHT22;5860;52.018;8.536;2023-07-30T06:42:06;19.60;99.90
11609;DHT22;5860;52.018;8.536;2023-07-30T06:44:35;19.30;99.90
11609;DHT22;5860;52.018;8.536;2023-07-30T06:47:01;19.40;99.90
11609;DHT22;5860;52.018;8.536;2023-07-30T06:49:28;19.00;99.90
11609;DHT22;5860;52.018;8.536;2023-07-30T06:51:55;19.10;99.90
11609;DHT22;5860;52.018;8.536;2023-07-30T06:54:22;20.20;99.90
11609;DHT22;5860;52.018;8.536;2023-07-30T06:56:49;19.90;99.90
11609;DHT22;5860;52.018;8.536;2023-07-30T06:59:16;20.30;99.90
11609;DHT22;5860;52.018;8.536;2023-07-30T07:01:43;19.90;99.90
11609;DHT22;5860;52.018;8.536;2023-07-30T07:04:10;20.00;99.90
11609;DHT22;5860;52.018;8.536;2023-07-30T07:06:37;19.10;99.90
11609;DHT22;5860;52.018;8.536;2023-07-30T07:09:04;19.00;99.90
11609;DHT22;5860;52.018;8.536;2023-07-30T07:11:32;18.00;99.90
11609;DHT22;5860;52.018;8.536;2023-07-30T07:13:59;18.10;99.90
11609;DHT22;5860;52.018;8.536;2023-07-30T07:16:26;18.00;99.90
11609;DHT22;5860;52.018;8.536;2023-07-30T07:18:52;17.70;99.90
11609;DHT22;5860;52.018;8.536;2023-07-30T07:21:19;17.70;99.90
11609;DHT22;5860;52.018;8.536;2023-07-30T07:23:47;17.50;99.90
11609;DHT22;5860;52.018;8.536;2023-07-30T07:26:14;17.40;99.90
11609;DHT22;5860;52.018;8.536;2023-07-30T07:28:41;17.40;99.90
11609;DHT22;5860;52.018;8.536;2023-07-30T07:31:08;17.30;99.90
11609;DHT22;5860;52.018;8.536;2023-07-30T07:33:35;17.20;99.90
11609;DHT22;5860;52.018;8.536;2023-07-30T07:36:08;17.10;99.90
11609;DHT22;5860;52.018;8.536;2023-07-30T07:38:35;17.20;99.90
11609;DHT22;5860;52.018;8.536;2023-07-30T07:41:02;17.10;99.90
11609;DHT22;5860;52.018;8.536;2023-07-30T07:43:29;17.10;99.90
11609;DHT22;5860;52.018;8.536;2023-07-30T07:45:56;17.00;99.90
11609;DHT22;5860;52.018;8.536;2023-07-30T07:48:23;16.80;99.90
11609;DHT22;5860;52.018;8.536;2023-07-30T07:50:50;16.90;99.90
11609;DHT22;5860;52.018;8.536;2023-07-30T07:53:17;16.80;99.90
11609;DHT22;5860;52.018;8.536;2023-07-30T07:55:43;16.70;99.90
11609;DHT22;5860;52.018;8.536;2023-07-30T07:58:10;16.60;99.90
11609;DHT22;5860;52.018;8.536;2023-07-30T08:00:37;16.70;99.90
11609;DHT22;5860;52.018;8.536;2023-07-30T08:03:04;16.70;99.90
11609;DHT22;5860;52.018;8.536;2023-07-30T08:05:31;16.80;99.90
11609;DHT22;5860;52.018;8.536;2023-07-30T08:07:58;17.00;99.90
11609;DHT22;5860;52.018;8.536;2023-07-30T08:10:25;17.10;99.90
11609;DHT22;5860;52.018;8.536;2023-07-30T08:12:52;17.30;99.90
11609;DHT22;5860;52.018;8.536;2023-07-30T08:15:19;17.30;99.90
11609;DHT22;5860;52.018;8.536;2023-07-30T08:17:47;17.00;99.90
11609;DHT22;5860;52.018;8.536;2023-07-30T08:20:13;16.80;99.90
11609;DHT22;5860;52.018;8.536;2023-07-30T08:22:40;16.80;99.90
11609;DHT22;5860;52.018;8.536;2023-07-30T08:25:08;17.00;99.90
11609;DHT22;5860;52.018;8.536;2023-07-30T08:27:35;17.10;99.90
11609;DHT22;5860;52.018;8.536;2023-07-30T08:30:02;17.30;99.90
11609;DHT22;5860;52.018;8.536;2023-07-30T08:32:29;17.20;99.90
11609;DHT22;5860;52.018;8.536;2023-07-30T08:34:56;17.20;99.90
11609;DHT22;5860;52.018;8.536;2023-07-30T08:37:22;17.30;99.90
11609;DHT22;5860;52.018;8.536;2023-07-30T08:39:50;17.30;99.90
11609;DHT22;5860;52.018;8.536;2023-07-30T08:42:17;17.40;99.90
11609;DHT22;5860;52.018;8.536;2023-07-30T08:44:44;17.30;99.90
11609;DHT22;5860;52.018;8.536;2023-07-30T08:47:11;17.10;99.90
11609;DHT22;5860;52.018;8.536;2023-07-30T08:49:38;17.10;99.90
11609;DHT22;5860;52.018;8.536;2023-07-30T08:52:08;16.80;99.90
11609;DHT22;5860;52.018;8.536;2023-07-30T08:54:38;16.70;99.90
11609;DHT22;5860;52.018;8.536;2023-07-30T08:57:06;16.60;99.90
11609;DHT22;5860;52.018;8.536;2023-07-30T08:59:39;16.50;99.90
11609;DHT22;5860;52.018;8.536;2023-07-30T09:02:15;16.50;99.90
11609;DHT22;5860;52.018;8.536;2023-07-30T09:04:46;16.60;99.90
11609;DHT22;5860;52.018;8.536;2023-07-30T09:07:16;16.50;99.90
11609;DHT22;5860;52.018;8.536;2023-07-30T09:09:43;16.40;99.90
11609;DHT22;5860;52.018;8.536;2023-07-30T09:12:14;16.50;99.90
11609;DHT22;5860;52.018;8.536;2023-07-30T09:14:41;16.60;99.90
11609;DHT22;5860;52.018;8.536;2023-07-30T09:17:17;16.50;99.90
11609;DHT22;5860;52.018;8.536;2023-07-30T09:19:44;16.60;99.90
11609;DHT22;5860;52.018;8.536;2023-07-30T09:22:28;16.70;99.90
11609;DHT22;5860;52.018;8.536;2023-07-30T09:24:56;16.80;99.90
11609;DHT22;5860;52.018;8.536;2023-07-30T09:27:24;16.90;99.90
11609;DHT22;5860;52.018;8.536;2023-07-30T09:29:55;17.10;99.90
11609;DHT22;5860;52.018;8.536;2023-07-30T09:32:33;17.30;99.90
11609;DHT22;5860;52.018;8.536;2023-07-30T09:35:07;17.30;99.90
11609;DHT22;5860;52.018;8.536;2023-07-30T09:37:40;17.40;99.90
11609;DHT22;5860;52.018;8.536;2023-07-30T09:40:09;17.30;99.90
11609;DHT22;5860;52.018;8.536;2023-07-30T09:42:36;17.10;99.90
11609;DHT22;5860;52.018;8.536;2023-07-30T09:45:08;17.40;99.90
11609;DHT22;5860;52.018;8.536;2023-07-30T09:47:38;17.50;99.90
11609;DHT22;5860;52.018;8.536;2023-07-30T09:50:05;17.60;99.90
11609;DHT22;5860;52.018;8.536;2023-07-30T09:52:32;17.70;99.90
11609;DHT22;5860;52.018;8.536;2023-07-30T09:55:00;17.70;99.90
11609;DHT22;5860;52.018;8.536;2023-07-30T09:57:28;17.60;99.90
11609;DHT22;5860;52.018;8.536;2023-07-30T09:59:55;17.50;99.90
11609;DHT22;5860;52.018;8.536;2023-07-30T10:02:24;17.50;99.90
11609;DHT22;5860;52.018;8.536;2023-07-30T10:04:53;17.60;99.90
11609;DHT22;5860;52.018;8.536;2023-07-30T10:07:24;17.40;99.90
11609;DHT22;5860;52.018;8.536;2023-07-30T10:09:55;17.30;99.90
11609;DHT22;5860;52.018;8.536;2023-07-30T10:12:28;17.30;99.90
11609;DHT22;5860;52.018;8.536;2023-07-30T10:14:57;17.30;99.90
11609;DHT22;5860;52.018;8.536;2023-07-30T10:17:24;17.50;99.90
11609;DHT22;5860;52.018;8.536;2023-07-30T10:19:51;17.80;99.90
11609;DHT22;5860;52.018;8.536;2023-07-30T10:25:03;18.10;99.90
11609;DHT22;5860;52.018;8.536;2023-07-30T10:27:41;18.50;99.90
11609;DHT22;5860;52.018;8.536;2023-07-30T10:30:14;19.40;99.90
11609;DHT22;5860;52.018;8.536;2023-07-30T10:33:03;19.80;99.90
11609;DHT22;5860;52.018;8.536;2023-07-30T10:35:39;19.70;99.90
11609;DHT22;5860;52.018;8.536;2023-07-30T10:38:17;19.40;99.90
11609;DHT22;5860;52.018;8.536;2023-07-30T10:41:06;19.70;99.90
11609;DHT22;5860;52.018;8.536;2023-07-30T10:43:46;19.40;99.90
11609;DHT22;5860;52.018;8.536;2023-07-30T10:46:15;19.90;99.90
11609;DHT22;5860;52.018;8.536;2023-07-30T10:48:44;20.50;99.90
11609;DHT22;5860;52.018;8.536;2023-07-30T10:51:13;20.70;99.90
11609;DHT22;5860;52.018;8.536;2023-07-30T10:53:46;20.70;99.90
11609;DHT22;5860;52.018;8.536;2023-07-30T10:56:16;20.40;99.90
11609;DHT22;5860;52.018;8.536;2023-07-30T10:58:43;20.40;99.90
11609;DHT22;5860;52.018;8.536;2023-07-30T11:01:15;20.50;99.90
11609;DHT22;5860;52.018;8.536;2023-07-30T11:03:42;20.10;99.90
11609;DHT22;5860;52.018;8.536;2023-07-30T11:06:09;20.30;99.90
11609;DHT22;5860;52.018;8.536;2023-07-30T11:08:42;20.20;99.90
11609;DHT22;5860;52.018;8.536;2023-07-30T11:11:10;19.90;99.90
11609;DHT22;5860;52.018;8.536;2023-07-30T11:13:45;20.00;99.90
11609;DHT22;5860;52.018;8.536;2023-07-30T11:16:15;20.20;99.90
11609;DHT22;5860;52.018;8.536;2023-07-30T11:18:43;20.80;99.90
11609;DHT22;5860;52.018;8.536;2023-07-30T11:21:15;20.90;99.90
11609;DHT22;5860;52.018;8.536;2023-07-30T11:23:45;21.10;99.90
11609;DHT22;5860;52.018;8.536;2023-07-30T11:26:18;21.30;99.90
11609;DHT22;5860;52.018;8.536;2023-07-30T11:28:46;21.30;99.90
11609;DHT22;5860;52.018;8.536;2023-07-30T11:31:18;21.80;99.90
11609;DHT22;5860;52.018;8.536;2023-07-30T11:33:59;21.30;99.90
11609;DHT22;5860;52.018;8.536;2023-07-30T11:36:26;21.30;99.90
11609;DHT22;5860;52.018;8.536;2023-07-30T11:38:54;20.90;99.90
11609;DHT22;5860;52.018;8.536;2023-07-30T11:41:21;20.80;99.90
11609;DHT22;5860;52.018;8.536;2023-07-30T11:43:49;20.90;99.90
11609;DHT22;5860;52.018;8.536;2023-07-30T11:46:18;20.80;99.90
11609;DHT22;5860;52.018;8.536;2023-07-30T11:48:51;21.10;99.90
11609;DHT22;5860;52.018;8.536;2023-07-30T11:58:46;21.50;99.90
11609;DHT22;5860;52.018;8.536;2023-07-30T12:01:15;21.40;99.90
11609;DHT22;5860;52.018;8.536;2023-07-30T12:03:42;20.90;99.90
11609;DHT22;5860;52.018;8.536;2023-07-30T12:06:10;20.80;99.90
11609;DHT22;5860;52.018;8.536;2023-07-30T12:08:37;20.80;99.90
11609;DHT22;5860;52.018;8.536;2023-07-30T12:11:07;20.60;99.90
11609;DHT22;5860;52.018;8.536;2023-07-30T12:13:34;20.20;99.90
11609;DHT22;5860;52.018;8.536;2023-07-30T12:16:08;20.20;99.90
11609;DHT22;5860;52.018;8.536;2023-07-30T12:18:35;20.00;99.90
11609;DHT22;5860;52.018;8.536;2023-07-30T12:21:02;20.00;99.90
11609;DHT22;5860;52.018;8.536;2023-07-30T12:23:29;20.00;99.90
11609;DHT22;5860;52.018;8.536;2023-07-30T12:25:56;20.10;99.90
11609;DHT22;5860;52.018;8.536;2023-07-30T12:28:22;20.40;99.90
11609;DHT22;5860;52.018;8.536;2023-07-30T12:30:49;20.40;99.90
11609;DHT22;5860;52.018;8.536;2023-07-30T12:33:16;20.60;99.90
11609;DHT22;5860;52.018;8.536;2023-07-30T12:35:43;20.30;99.90
11609;DHT22;5860;52.018;8.536;2023-07-30T12:38:10;20.90;99.90
11609;DHT22;5860;52.018;8.536;2023-07-30T12:40:37;21.00;99.90
11609;DHT22;5860;52.018;8.536;2023-07-30T12:43:04;21.10;99.90
11609;DHT22;5860;52.018;8.536;2023-07-30T12:45:31;21.10;99.90
11609;DHT22;5860;52.018;8.536;2023-07-30T12:48:00;21.20;99.90
11609;DHT22;5860;52.018;8.536;2023-07-30T12:50:27;20.90;99.90
11609;DHT22;5860;52.018;8.536;2023-07-30T12:52:54;21.10;99.90
11609;DHT22;5860;52.018;8.536;2023-07-30T12:55:21;21.10;99.90
11609;DHT22;5860;52.018;8.536;2023-07-30T12:57:47;21.00;99.90
11609;DHT22;5860;52.018;8.536;2023-07-30T13:00:15;20.80;99.90
11609;DHT22;5860;52.018;8.536;2023-07-30T13:02:43;21.30;99.90
11609;DHT22;5860;52.018;8.536;2023-07-30T13:05:10;21.00;99.90
11609;DHT22;5860;52.018;8.536;2023-07-30T13:07:37;21.30;99.90
11609;DHT22;5860;52.018;8.536;2023-07-30T13:10:05;21.00;99.90
11609;DHT22;5860;52.018;8.536;2023-07-30T13:12:33;21.00;99.90
11609;DHT22;5860;52.018;8.536;2023-07-30T13:15:00;20.90;99.90
11609;DHT22;5860;52.018;8.536;2023-07-30T13:17:28;20.90;99.90
11609;DHT22;5860;52.018;8.536;2023-07-30T13:19:55;21.10;99.90
11609;DHT22;5860;52.018;8.536;2023-07-30T13:22:22;20.90;99.90
11609;DHT22;5860;52.018;8.536;2023-07-30T13:24:49;21.20;99.90
11609;DHT22;5860;52.018;8.536;2023-07-30T13:27:16;20.80;99.90
11609;DHT22;5860;52.018;8.536;2023-07-30T13:29:44;20.80;99.90
11609;DHT22;5860;52.018;8.536;2023-07-30T13:32:11;20.60;99.90
11609;DHT22;5860;52.018;8.536;2023-07-30T13:34:38;20.30;99.90
11609;DHT22;5860;52.018;8.536;2023-07-30T13:37:05;20.00;99.90
11609;DHT22;5860;52.018;8.536;2023-07-30T13:39:32;19.40;99.90
11609;DHT22;5860;52.018;8.536;2023-07-30T13:41:59;18.50;99.90
11609;DHT22;5860;52.018;8.536;2023-07-30T13:44:26;17.60;99.90
11609;DHT22;5860;52.018;8.536;2023-07-30T13:46:53;17.20;99.90
11609;DHT22;5860;52.018;8.536;2023-07-30T13:49:20;16.80;99.90
11609;DHT22;5860;52.018;8.536;2023-07-30T13:51:47;16.70;99.90
11609;DHT22;5860;52.018;8.536;2023-07-30T13:54:14;16.60;99.90
11609;DHT22;5860;52.018;8.536;2023-07-30T13:56:41;16.70;99.90
11609;DHT22;5860;52.018;8.536;2023-07-30T13:59:08;17.00;99.90
11609;DHT22;5860;52.018;8.536;2023-07-30T14:01:35;17.00;99.90
11609;DHT22;5860;52.018;8.536;2023-07-30T14:04:03;17.10;99.90
11609;DHT22;5860;52.018;8.536;2023-07-30T14:06:30;17.00;99.90
11609;DHT22;5860;52.018;8.536;2023-07-30T14:08:57;17.10;99.90
11609;DHT22;5860;52.018;8.536;2023-07-30T14:11:28;17.20;99.90
11609;DHT22;5860;52.018;8.536;2023-07-30T14:13:56;17.30;99.90
11609;DHT22;5860;52.018;8.536;2023-07-30T14:16:24;17.30;99.90
11609;DHT22;5860;52.018;8.536;2023-07-30T14:18:51;17.30;99.90
11609;DHT22;5860;52.018;8.536;2023-07-30T14:21:18;17.70;99.90
11609;DHT22;5860;52.018;8.536;2023-07-30T14:23:45;17.60;99.90
11609;DHT22;5860;52.018;8.536;2023-07-30T14:26:12;17.80;99.90
11609;DHT22;5860;52.018;8.536;2023-07-30T14:28:39;17.70;99.90
11609;DHT22;5860;52.018;8.536;2023-07-30T14:31:06;18.20;99.90
11609;DHT22;5860;52.018;8.536;2023-07-30T14:33:32;18.40;99.90
11609;DHT22;5860;52.018;8.536;2023-07-30T14:36:00;18.40;99.90
11609;DHT22;5860;52.018;8.536;2023-07-30T14:38:27;18.30;99.90
11609;DHT22;5860;52.018;8.536;2023-07-30T14:40:54;18.40;99.90
11609;DHT22;5860;52.018;8.536;2023-07-30T14:43:21;18.50;99.90
11609;DHT22;5860;52.018;8.536;2023-07-30T14:45:49;18.60;99.90
11609;DHT22;5860;52.018;8.536;2023-07-30T14:48:16;18.70;99.90
11609;DHT22;5860;52.018;8.536;2023-07-30T14:50:43;18.70;99.90
11609;DHT22;5860;52.018;8.536;2023-07-30T14:53:10;18.90;99.90
11609;DHT22;5860;52.018;8.536;2023-07-30T14:55:37;19.00;99.90
11609;DHT22;5860;52.018;8.536;2023-07-30T14:58:04;19.00;99.90
11609;DHT22;5860;52.018;8.536;2023-07-30T15:00:31;19.20;99.90
11609;DHT22;5860;52.018;8.536;2023-07-30T15:02:58;19.20;99.90
11609;DHT22;5860;52.018;8.536;2023-07-30T15:05:25;19.30;99.90
11609;DHT22;5860;52.018;8.536;2023-07-30T15:07:51;19.20;99.90
11609;DHT22;5860;52.018;8.536;2023-07-30T15:10:19;19.30;99.90
11609;DHT22;5860;52.018;8.536;2023-07-30T15:12:46;19.20;99.90
11609;DHT22;5860;52.018;8.536;2023-07-30T15:15:13;19.50;99.90
11609;DHT22;5860;52.018;8.536;2023-07-30T15:17:39;19.60;99.90
11609;DHT22;5860;52.018;8.536;2023-07-30T15:20:07;19.30;99.90
11609;DHT22;5860;52.018;8.536;2023-07-30T15:22:34;19.60;99.90
11609;DHT22;5860;52.018;8.536;2023-07-30T15:25:01;19.50;99.90
11609;DHT22;5860;52.018;8.536;2023-07-30T15:27:30;19.60;99.90
11609;DHT22;5860;52.018;8.536;2023-07-30T15:29:57;19.60;99.90
11609;DHT22;5860;52.018;8.536;2023-07-30T15:32:23;19.80;99.90
11609;DHT22;5860;52.018;8.536;2023-07-30T15:34:51;19.90;99.90
11609;DHT22;5860;52.018;8.536;2023-07-30T15:37:18;19.90;99.90
11609;DHT22;5860;52.018;8.536;2023-07-30T15:39:45;19.60;99.90
11609;DHT22;5860;52.018;8.536;2023-07-30T15:42:12;19.50;99.90
11609;DHT22;5860;52.018;8.536;2023-07-30T15:44:39;19.40;99.90
11609;DHT22;5860;52.018;8.536;2023-07-30T15:47:06;19.40;99.90
11609;DHT22;5860;52.018;8.536;2023-07-30T15:49:33;19.60;99.90
11609;DHT22;5860;52.018;8.536;2023-07-30T15:52:00;19.80;99.90
11609;DHT22;5860;52.018;8.536;2023-07-30T15:54:33;20.20;99.90
11609;DHT22;5860;52.018;8.536;2023-07-30T15:57:01;20.40;99.90
11609;DHT22;5860;52.018;8.536;2023-07-30T15:59:28;20.40;99.90